Aeroporto :
LOGIN :

Iscrizione | Disclaimer

   EN    FR    IT 

 










Sommario :    VFR   VFR Marginale   IFR   IFR Intensivo   IFR Molto Intensivo
Visibilità : 
Base nubi : 
>= 8 km
>= 3000ft
5 / 8 km
1000 / 3000 ft
1500m / 5 km
500 / 1000 ft
800 / 1500m
200 / 500 ft
< 800m
< 200 ft
Simboli :   Temporali  Nebbia  Neve Forte  Precipitazioni Forti  Vento > 20 kt
SIGMETs :   Varie  Temporali  Ghiacco  Turbolenza  Onda orograficha  Ceneri Vulcaniche






- Altitudine del aeroporto : 306 ft
- Codice IATA : EMA


EGNX - Nottingham East Midlands

ULTIMO METAR :
  • 120020Z 24013KT 9999 FEW018 SCT034 04/02 Q0997

METARs OBSOLETI :
  • 112350Z 24014KT 9999 FEW034 04/02 Q0997
  • 112320Z 23014KT 9999 FEW032 04/02 Q0997
  • 112250Z 23015KT 9999 FEW021 SCT031 04/02 Q0997
  • 112220Z 24013KT 9999 SCT021 04/02 Q0998
  • 112150Z 25015KT 9999 SCT024 05/02 Q0998

TAF TAF EGNX
Valido dal 12 a 00 ore il 13 a 00 ore UTC


112300Z 1200/1224 25014KT 9999 FEW012 SCT030
PROB40
TEMPO 1200/1206 26018G28KT 6000 SHRA
BECMG 1206/1209 25022G32KT
TEMPO 1206/1215 6000 RA BKN012
PROB30
TEMPO 1206/1215 4000 +RA
BECMG 1212/1215 30015KT
ATIS : +44 1332 852 852 (ext 3201)



MetMap, La meteo Aeronautica in un colpo d'occhio ! - Copyright ORBIFLY Dicembre 2007 - Disclaimer

ORBIFLY MET'MAP TEAM :

Programmazione e sviluppo : Alexandra Zaïnal
Concezione e sviluppo : Baudouin d'Aumeries
Co-Programmazione e sviluppo : Marc-Olivier Méhu
Supporto tecnico e logistico : Manuel Goepfert
Aiuto per la traduzione : Arnaldo La Scala

Contatto : metmap@orbifly.com




FONTI E CREDITI :

   NOAA